sensor_id;sensor_type;location;lat;lon;timestamp;temperature;humidity
5938;DHT22;2994;51.220;4.412;2023-03-20T00:02:53;11.34;70.35
5938;DHT22;2994;51.220;4.412;2023-03-20T00:05:20;11.32;70.31
5938;DHT22;2994;51.220;4.412;2023-03-20T00:07:47;11.33;70.36
5938;DHT22;2994;51.220;4.412;2023-03-20T00:10:14;11.34;70.17
5938;DHT22;2994;51.220;4.412;2023-03-20T00:12:40;11.33;70.17
5938;DHT22;2994;51.220;4.412;2023-03-20T00:15:22;11.31;70.52
5938;DHT22;2994;51.220;4.412;2023-03-20T00:17:47;11.30;70.07
5938;DHT22;2994;51.220;4.412;2023-03-20T00:20:17;11.29;70.10
5938;DHT22;2994;51.220;4.412;2023-03-20T00:22:42;11.28;69.92
5938;DHT22;2994;51.220;4.412;2023-03-20T00:25:15;11.30;69.90
5938;DHT22;2994;51.220;4.412;2023-03-20T00:27:42;11.25;70.08
5938;DHT22;2994;51.220;4.412;2023-03-20T00:32:49;11.22;70.06
5938;DHT22;2994;51.220;4.412;2023-03-20T00:35:29;11.19;70.05
5938;DHT22;2994;51.220;4.412;2023-03-20T00:37:56;11.16;70.14
5938;DHT22;2994;51.220;4.412;2023-03-20T00:40:26;11.18;70.10
5938;DHT22;2994;51.220;4.412;2023-03-20T00:42:58;11.16;70.20
5938;DHT22;2994;51.220;4.412;2023-03-20T00:45:24;11.18;70.19
5938;DHT22;2994;51.220;4.412;2023-03-20T00:47:50;11.12;70.01
5938;DHT22;2994;51.220;4.412;2023-03-20T00:50:19;11.12;70.14
5938;DHT22;2994;51.220;4.412;2023-03-20T00:52:48;11.09;70.18
5938;DHT22;2994;51.220;4.412;2023-03-20T00:55:14;11.05;70.21
5938;DHT22;2994;51.220;4.412;2023-03-20T00:57:43;11.04;70.29
5938;DHT22;2994;51.220;4.412;2023-03-20T01:02:53;11.05;69.88
5938;DHT22;2994;51.220;4.412;2023-03-20T01:05:19;11.04;69.83
5938;DHT22;2994;51.220;4.412;2023-03-20T01:07:46;10.95;70.21
5938;DHT22;2994;51.220;4.412;2023-03-20T01:10:12;10.92;70.29
5938;DHT22;2994;51.220;4.412;2023-03-20T01:12:39;10.93;70.23
5938;DHT22;2994;51.220;4.412;2023-03-20T01:15:15;10.92;70.26
5938;DHT22;2994;51.220;4.412;2023-03-20T01:17:41;10.92;70.36
5938;DHT22;2994;51.220;4.412;2023-03-20T01:20:20;10.88;70.40
5938;DHT22;2994;51.220;4.412;2023-03-20T01:22:45;10.92;70.26
5938;DHT22;2994;51.220;4.412;2023-03-20T01:25:11;10.90;69.96
5938;DHT22;2994;51.220;4.412;2023-03-20T01:27:36;10.90;69.97
5938;DHT22;2994;51.220;4.412;2023-03-20T01:30:04;10.87;70.00
5938;DHT22;2994;51.220;4.412;2023-03-20T01:32:30;10.87;70.06
5938;DHT22;2994;51.220;4.412;2023-03-20T01:34:56;10.89;69.89
5938;DHT22;2994;51.220;4.412;2023-03-20T01:37:24;10.88;69.71
5938;DHT22;2994;51.220;4.412;2023-03-20T01:39:51;10.90;69.58
5938;DHT22;2994;51.220;4.412;2023-03-20T01:42:16;10.94;69.29
5938;DHT22;2994;51.220;4.412;2023-03-20T01:44:43;10.94;69.17
5938;DHT22;2994;51.220;4.412;2023-03-20T01:47:16;10.93;68.95
5938;DHT22;2994;51.220;4.412;2023-03-20T01:52:51;10.94;68.88
5938;DHT22;2994;51.220;4.412;2023-03-20T01:55:19;10.92;68.92
5938;DHT22;2994;51.220;4.412;2023-03-20T01:57:45;10.96;68.86
5938;DHT22;2994;51.220;4.412;2023-03-20T02:00:14;10.96;68.85
5938;DHT22;2994;51.220;4.412;2023-03-20T02:02:43;10.92;68.88
5938;DHT22;2994;51.220;4.412;2023-03-20T02:05:10;10.95;68.91
5938;DHT22;2994;51.220;4.412;2023-03-20T02:07:38;10.96;68.71
5938;DHT22;2994;51.220;4.412;2023-03-20T02:10:07;10.94;68.93
5938;DHT22;2994;51.220;4.412;2023-03-20T02:12:34;10.95;68.78
5938;DHT22;2994;51.220;4.412;2023-03-20T02:15:01;10.97;68.76
5938;DHT22;2994;51.220;4.412;2023-03-20T02:17:27;10.93;68.75
5938;DHT22;2994;51.220;4.412;2023-03-20T02:20:25;10.97;68.78
5938;DHT22;2994;51.220;4.412;2023-03-20T02:39:09;10.86;68.52
5938;DHT22;2994;51.220;4.412;2023-03-20T02:42:07;10.87;68.59
5938;DHT22;2994;51.220;4.412;2023-03-20T02:44:46;10.88;68.57
5938;DHT22;2994;51.220;4.412;2023-03-20T02:47:33;10.86;68.73
5938;DHT22;2994;51.220;4.412;2023-03-20T02:50:15;10.84;68.76
5938;DHT22;2994;51.220;4.412;2023-03-20T02:52:49;10.82;68.87
5938;DHT22;2994;51.220;4.412;2023-03-20T02:58:18;10.69;69.10
5938;DHT22;2994;51.220;4.412;2023-03-20T03:01:13;10.67;69.29
5938;DHT22;2994;51.220;4.412;2023-03-20T03:03:50;10.68;69.06
5938;DHT22;2994;51.220;4.412;2023-03-20T03:06:23;10.71;68.97
5938;DHT22;2994;51.220;4.412;2023-03-20T03:09:13;10.64;69.43
5938;DHT22;2994;51.220;4.412;2023-03-20T03:11:45;10.66;69.45
5938;DHT22;2994;51.220;4.412;2023-03-20T03:14:41;10.65;69.35
5938;DHT22;2994;51.220;4.412;2023-03-20T03:17:09;10.67;69.29
5938;DHT22;2994;51.220;4.412;2023-03-20T03:19:37;10.64;69.49
5938;DHT22;2994;51.220;4.412;2023-03-20T03:22:04;10.65;69.54
5938;DHT22;2994;51.220;4.412;2023-03-20T03:24:33;10.67;69.53
5938;DHT22;2994;51.220;4.412;2023-03-20T03:27:03;10.67;69.48
5938;DHT22;2994;51.220;4.412;2023-03-20T03:29:33;10.68;69.42
5938;DHT22;2994;51.220;4.412;2023-03-20T03:32:02;10.69;69.51
5938;DHT22;2994;51.220;4.412;2023-03-20T03:34:30;10.67;69.43
5938;DHT22;2994;51.220;4.412;2023-03-20T03:39:37;10.66;69.64
5938;DHT22;2994;51.220;4.412;2023-03-20T03:42:15;10.67;69.39
5938;DHT22;2994;51.220;4.412;2023-03-20T03:45:16;10.64;69.65
5938;DHT22;2994;51.220;4.412;2023-03-20T03:47:53;10.68;69.52
5938;DHT22;2994;51.220;4.412;2023-03-20T03:50:27;10.66;69.59
5938;DHT22;2994;51.220;4.412;2023-03-20T03:52:56;10.66;69.49
5938;DHT22;2994;51.220;4.412;2023-03-20T03:55:26;10.62;69.43
5938;DHT22;2994;51.220;4.412;2023-03-20T03:58:12;10.62;69.70
5938;DHT22;2994;51.220;4.412;2023-03-20T04:00:41;10.60;69.71
5938;DHT22;2994;51.220;4.412;2023-03-20T04:03:09;10.58;69.80
5938;DHT22;2994;51.220;4.412;2023-03-20T04:05:36;10.62;69.52
5938;DHT22;2994;51.220;4.412;2023-03-20T04:08:05;10.64;69.36
5938;DHT22;2994;51.220;4.412;2023-03-20T04:10:31;10.65;69.30
5938;DHT22;2994;51.220;4.412;2023-03-20T04:12:57;10.64;69.34
5938;DHT22;2994;51.220;4.412;2023-03-20T04:15:22;10.62;69.55
5938;DHT22;2994;51.220;4.412;2023-03-20T04:17:48;10.62;69.41
5938;DHT22;2994;51.220;4.412;2023-03-20T04:20:14;10.55;69.74
5938;DHT22;2994;51.220;4.412;2023-03-20T04:22:40;10.57;69.66
5938;DHT22;2994;51.220;4.412;2023-03-20T04:25:08;10.58;69.68
5938;DHT22;2994;51.220;4.412;2023-03-20T04:27:34;10.63;69.36
5938;DHT22;2994;51.220;4.412;2023-03-20T04:30:00;10.58;69.55
5938;DHT22;2994;51.220;4.412;2023-03-20T04:32:25;10.58;69.65
5938;DHT22;2994;51.220;4.412;2023-03-20T04:34:51;10.60;69.57
5938;DHT22;2994;51.220;4.412;2023-03-20T04:37:17;10.52;69.94
5938;DHT22;2994;51.220;4.412;2023-03-20T04:39:42;10.62;69.50
5938;DHT22;2994;51.220;4.412;2023-03-20T04:42:09;10.60;69.84
5938;DHT22;2994;51.220;4.412;2023-03-20T04:44:35;10.57;69.70
5938;DHT22;2994;51.220;4.412;2023-03-20T04:47:01;10.64;69.15
5938;DHT22;2994;51.220;4.412;2023-03-20T04:49:27;10.52;69.94
5938;DHT22;2994;51.220;4.412;2023-03-20T04:51:53;10.55;69.67
5938;DHT22;2994;51.220;4.412;2023-03-20T04:54:19;10.56;69.74
5938;DHT22;2994;51.220;4.412;2023-03-20T04:56:44;10.57;69.84
5938;DHT22;2994;51.220;4.412;2023-03-20T04:59:10;10.59;69.35
5938;DHT22;2994;51.220;4.412;2023-03-20T05:01:35;10.56;69.67
5938;DHT22;2994;51.220;4.412;2023-03-20T05:04:01;10.57;69.58
5938;DHT22;2994;51.220;4.412;2023-03-20T05:06:27;10.56;69.59
5938;DHT22;2994;51.220;4.412;2023-03-20T05:08:52;10.59;69.55
5938;DHT22;2994;51.220;4.412;2023-03-20T05:11:18;10.57;69.58
5938;DHT22;2994;51.220;4.412;2023-03-20T05:13:43;10.53;69.79
5938;DHT22;2994;51.220;4.412;2023-03-20T05:16:09;10.55;69.81
5938;DHT22;2994;51.220;4.412;2023-03-20T05:18:34;10.54;69.77
5938;DHT22;2994;51.220;4.412;2023-03-20T05:21:00;10.51;69.89
5938;DHT22;2994;51.220;4.412;2023-03-20T05:23:26;10.56;69.82
5938;DHT22;2994;51.220;4.412;2023-03-20T05:25:52;10.57;69.66
5938;DHT22;2994;51.220;4.412;2023-03-20T05:28:17;10.59;69.52
5938;DHT22;2994;51.220;4.412;2023-03-20T05:30:43;10.58;69.48
5938;DHT22;2994;51.220;4.412;2023-03-20T05:33:08;10.57;69.55
5938;DHT22;2994;51.220;4.412;2023-03-20T05:35:34;10.62;69.37
5938;DHT22;2994;51.220;4.412;2023-03-20T05:37:59;10.60;69.49
5938;DHT22;2994;51.220;4.412;2023-03-20T05:40:25;10.63;69.50
5938;DHT22;2994;51.220;4.412;2023-03-20T05:42:50;10.49;70.05
5938;DHT22;2994;51.220;4.412;2023-03-20T05:45:17;10.54;69.71
5938;DHT22;2994;51.220;4.412;2023-03-20T05:47:42;10.56;69.42
5938;DHT22;2994;51.220;4.412;2023-03-20T05:50:09;10.54;69.56
5938;DHT22;2994;51.220;4.412;2023-03-20T05:52:35;10.56;69.53
5938;DHT22;2994;51.220;4.412;2023-03-20T05:55:00;10.59;69.35
5938;DHT22;2994;51.220;4.412;2023-03-20T05:57:26;10.59;69.39
5938;DHT22;2994;51.220;4.412;2023-03-20T05:59:51;10.56;69.46
5938;DHT22;2994;51.220;4.412;2023-03-20T06:02:17;10.51;69.95
5938;DHT22;2994;51.220;4.412;2023-03-20T06:04:42;10.56;69.77
5938;DHT22;2994;51.220;4.412;2023-03-20T06:07:08;10.59;69.63
5938;DHT22;2994;51.220;4.412;2023-03-20T06:09:34;10.62;69.30
5938;DHT22;2994;51.220;4.412;2023-03-20T06:11:59;10.56;69.77
5938;DHT22;2994;51.220;4.412;2023-03-20T06:14:27;10.57;69.71
5938;DHT22;2994;51.220;4.412;2023-03-20T06:16:53;10.59;69.60
5938;DHT22;2994;51.220;4.412;2023-03-20T06:19:19;10.59;69.82
5938;DHT22;2994;51.220;4.412;2023-03-20T06:21:46;10.62;69.82
5938;DHT22;2994;51.220;4.412;2023-03-20T06:24:14;10.58;69.94
5938;DHT22;2994;51.220;4.412;2023-03-20T06:26:40;10.60;70.10
5938;DHT22;2994;51.220;4.412;2023-03-20T06:29:06;10.63;69.93
5938;DHT22;2994;51.220;4.412;2023-03-20T06:31:31;10.63;69.92
5938;DHT22;2994;51.220;4.412;2023-03-20T06:33:57;10.69;69.89
5938;DHT22;2994;51.220;4.412;2023-03-20T06:36:22;10.69;69.87
5938;DHT22;2994;51.220;4.412;2023-03-20T06:38:48;10.72;69.78
5938;DHT22;2994;51.220;4.412;2023-03-20T06:41:13;10.73;69.52
5938;DHT22;2994;51.220;4.412;2023-03-20T06:43:39;10.67;69.94
5938;DHT22;2994;51.220;4.412;2023-03-20T06:46:05;10.75;69.32
5938;DHT22;2994;51.220;4.412;2023-03-20T06:48:31;10.65;69.81
5938;DHT22;2994;51.220;4.412;2023-03-20T06:50:56;10.65;69.68
5938;DHT22;2994;51.220;4.412;2023-03-20T06:53:22;10.64;69.71
5938;DHT22;2994;51.220;4.412;2023-03-20T06:55:49;10.67;69.66
5938;DHT22;2994;51.220;4.412;2023-03-20T06:58:15;10.71;69.58
5938;DHT22;2994;51.220;4.412;2023-03-20T07:00:41;10.71;69.83
5938;DHT22;2994;51.220;4.412;2023-03-20T07:03:06;10.71;69.71
5938;DHT22;2994;51.220;4.412;2023-03-20T07:05:32;10.74;69.47
5938;DHT22;2994;51.220;4.412;2023-03-20T07:07:58;10.70;69.61
5938;DHT22;2994;51.220;4.412;2023-03-20T07:10:24;10.73;69.50
5938;DHT22;2994;51.220;4.412;2023-03-20T07:12:49;10.75;69.55
5938;DHT22;2994;51.220;4.412;2023-03-20T07:15:16;10.80;69.39
5938;DHT22;2994;51.220;4.412;2023-03-20T07:17:41;10.78;69.46
5938;DHT22;2994;51.220;4.412;2023-03-20T07:20:10;10.79;69.51
5938;DHT22;2994;51.220;4.412;2023-03-20T07:22:37;10.81;69.68
5938;DHT22;2994;51.220;4.412;2023-03-20T07:25:04;10.79;69.70
5938;DHT22;2994;51.220;4.412;2023-03-20T07:27:30;10.82;69.61
5938;DHT22;2994;51.220;4.412;2023-03-20T07:29:55;10.92;69.40
5938;DHT22;2994;51.220;4.412;2023-03-20T07:32:21;10.90;69.48
5938;DHT22;2994;51.220;4.412;2023-03-20T07:34:46;10.85;69.54
5938;DHT22;2994;51.220;4.412;2023-03-20T07:37:13;10.97;69.24
5938;DHT22;2994;51.220;4.412;2023-03-20T07:39:39;10.97;69.23
5938;DHT22;2994;51.220;4.412;2023-03-20T07:42:05;10.94;69.28
5938;DHT22;2994;51.220;4.412;2023-03-20T07:44:33;10.95;69.47
5938;DHT22;2994;51.220;4.412;2023-03-20T07:47:01;11.05;69.67
5938;DHT22;2994;51.220;4.412;2023-03-20T07:49:27;11.09;69.17
5938;DHT22;2994;51.220;4.412;2023-03-20T07:51:52;11.05;69.32
5938;DHT22;2994;51.220;4.412;2023-03-20T07:54:19;11.05;69.45
5938;DHT22;2994;51.220;4.412;2023-03-20T07:56:45;11.04;69.35
5938;DHT22;2994;51.220;4.412;2023-03-20T07:59:11;11.04;69.09
5938;DHT22;2994;51.220;4.412;2023-03-20T08:01:37;11.09;69.06
5938;DHT22;2994;51.220;4.412;2023-03-20T08:04:02;11.07;69.07
5938;DHT22;2994;51.220;4.412;2023-03-20T08:06:28;11.07;69.10
5938;DHT22;2994;51.220;4.412;2023-03-20T08:08:53;11.12;68.71
5938;DHT22;2994;51.220;4.412;2023-03-20T08:11:19;11.11;69.03
5938;DHT22;2994;51.220;4.412;2023-03-20T08:13:45;11.08;68.91
5938;DHT22;2994;51.220;4.412;2023-03-20T08:16:11;11.15;68.94
5938;DHT22;2994;51.220;4.412;2023-03-20T08:18:37;11.13;69.40
5938;DHT22;2994;51.220;4.412;2023-03-20T08:21:03;11.13;69.48
5938;DHT22;2994;51.220;4.412;2023-03-20T08:23:29;11.19;69.29
5938;DHT22;2994;51.220;4.412;2023-03-20T08:25:54;11.27;69.10
5938;DHT22;2994;51.220;4.412;2023-03-20T08:28:21;11.24;69.51
5938;DHT22;2994;51.220;4.412;2023-03-20T08:30:47;11.23;69.58
5938;DHT22;2994;51.220;4.412;2023-03-20T08:33:14;11.26;69.62
5938;DHT22;2994;51.220;4.412;2023-03-20T08:35:40;11.30;69.45
5938;DHT22;2994;51.220;4.412;2023-03-20T08:38:10;11.31;69.36
5938;DHT22;2994;51.220;4.412;2023-03-20T08:40:39;11.24;69.63
5938;DHT22;2994;51.220;4.412;2023-03-20T08:43:05;11.12;69.84
5938;DHT22;2994;51.220;4.412;2023-03-20T08:45:30;11.17;69.52
5938;DHT22;2994;51.220;4.412;2023-03-20T08:47:56;11.28;68.99
5938;DHT22;2994;51.220;4.412;2023-03-20T08:50:21;11.24;69.13
5938;DHT22;2994;51.220;4.412;2023-03-20T08:52:47;11.25;68.98
5938;DHT22;2994;51.220;4.412;2023-03-20T08:55:13;11.20;69.20
5938;DHT22;2994;51.220;4.412;2023-03-20T08:57:40;11.23;69.29
5938;DHT22;2994;51.220;4.412;2023-03-20T09:00:07;11.22;69.07
5938;DHT22;2994;51.220;4.412;2023-03-20T09:02:33;11.23;69.17
5938;DHT22;2994;51.220;4.412;2023-03-20T09:04:59;11.26;69.39
5938;DHT22;2994;51.220;4.412;2023-03-20T09:07:24;11.15;69.68
5938;DHT22;2994;51.220;4.412;2023-03-20T09:09:50;11.19;69.74
5938;DHT22;2994;51.220;4.412;2023-03-20T09:12:15;11.37;69.57
5938;DHT22;2994;51.220;4.412;2023-03-20T09:14:41;11.40;69.19
5938;DHT22;2994;51.220;4.412;2023-03-20T09:17:06;11.36;69.05
5938;DHT22;2994;51.220;4.412;2023-03-20T09:19:33;11.53;68.71
5938;DHT22;2994;51.220;4.412;2023-03-20T09:21:59;11.61;69.45
5938;DHT22;2994;51.220;4.412;2023-03-20T09:24:25;11.68;68.26
5938;DHT22;2994;51.220;4.412;2023-03-20T09:26:51;11.76;68.07
5938;DHT22;2994;51.220;4.412;2023-03-20T09:29:16;11.82;67.75
5938;DHT22;2994;51.220;4.412;2023-03-20T09:31:42;11.88;67.79
5938;DHT22;2994;51.220;4.412;2023-03-20T09:34:07;11.97;67.28
5938;DHT22;2994;51.220;4.412;2023-03-20T09:36:33;11.87;67.46
5938;DHT22;2994;51.220;4.412;2023-03-20T09:38:59;12.01;66.62
5938;DHT22;2994;51.220;4.412;2023-03-20T09:41:25;11.94;67.00
5938;DHT22;2994;51.220;4.412;2023-03-20T09:44:00;12.05;66.30
5938;DHT22;2994;51.220;4.412;2023-03-20T09:48:53;11.91;66.71
5938;DHT22;2994;51.220;4.412;2023-03-20T09:53:54;12.01;66.27
5938;DHT22;2994;51.220;4.412;2023-03-20T09:56:24;12.02;66.24
5938;DHT22;2994;51.220;4.412;2023-03-20T09:58:58;12.05;66.35
5938;DHT22;2994;51.220;4.412;2023-03-20T10:01:52;12.14;66.16
5938;DHT22;2994;51.220;4.412;2023-03-20T10:04:18;12.26;65.34
5938;DHT22;2994;51.220;4.412;2023-03-20T10:06:44;12.20;65.60
5938;DHT22;2994;51.220;4.412;2023-03-20T10:20:37;12.41;64.66
5938;DHT22;2994;51.220;4.412;2023-03-20T10:26:30;12.33;64.79
5938;DHT22;2994;51.220;4.412;2023-03-20T10:28:57;12.36;64.08
5938;DHT22;2994;51.220;4.412;2023-03-20T10:31:35;12.14;64.62
5938;DHT22;2994;51.220;4.412;2023-03-20T10:36:58;12.27;64.50
5938;DHT22;2994;51.220;4.412;2023-03-20T10:39:44;12.35;64.45
5938;DHT22;2994;51.220;4.412;2023-03-20T10:42:20;12.40;64.28
5938;DHT22;2994;51.220;4.412;2023-03-20T10:44:54;12.41;64.48
5938;DHT22;2994;51.220;4.412;2023-03-20T10:47:22;12.35;64.74
5938;DHT22;2994;51.220;4.412;2023-03-20T10:49:57;12.33;64.43
5938;DHT22;2994;51.220;4.412;2023-03-20T10:52:37;12.59;63.30
5938;DHT22;2994;51.220;4.412;2023-03-20T10:55:19;12.61;64.03
5938;DHT22;2994;51.220;4.412;2023-03-20T10:58:02;12.62;64.54
5938;DHT22;2994;51.220;4.412;2023-03-20T11:00:29;12.78;63.87
5938;DHT22;2994;51.220;4.412;2023-03-20T11:02:55;12.80;63.61
5938;DHT22;2994;51.220;4.412;2023-03-20T11:05:31;12.88;64.05
5938;DHT22;2994;51.220;4.412;2023-03-20T11:08:05;12.93;63.39
5938;DHT22;2994;51.220;4.412;2023-03-20T11:10:34;12.95;63.44
5938;DHT22;2994;51.220;4.412;2023-03-20T11:13:34;13.04;63.04
5938;DHT22;2994;51.220;4.412;2023-03-20T11:16:22;12.95;62.21
5938;DHT22;2994;51.220;4.412;2023-03-20T11:18:49;12.97;62.91
5938;DHT22;2994;51.220;4.412;2023-03-20T11:21:24;13.23;61.96
5938;DHT22;2994;51.220;4.412;2023-03-20T11:23:49;13.17;62.20
5938;DHT22;2994;51.220;4.412;2023-03-20T11:26:18;13.30;61.54
5938;DHT22;2994;51.220;4.412;2023-03-20T11:28:58;13.26;61.38
5938;DHT22;2994;51.220;4.412;2023-03-20T11:31:37;13.35;61.87
5938;DHT22;2994;51.220;4.412;2023-03-20T11:36:30;13.31;61.64
5938;DHT22;2994;51.220;4.412;2023-03-20T11:39:12;13.40;61.38
5938;DHT22;2994;51.220;4.412;2023-03-20T11:41:45;13.55;60.57
5938;DHT22;2994;51.220;4.412;2023-03-20T11:44:50;13.47;60.43
5938;DHT22;2994;51.220;4.412;2023-03-20T11:47:24;13.64;60.28
5938;DHT22;2994;51.220;4.412;2023-03-20T11:49:56;13.50;60.74
5938;DHT22;2994;51.220;4.412;2023-03-20T11:52:24;13.70;59.92
5938;DHT22;2994;51.220;4.412;2023-03-20T11:54:54;13.71;60.02
5938;DHT22;2994;51.220;4.412;2023-03-20T11:57:38;13.81;60.10
5938;DHT22;2994;51.220;4.412;2023-03-20T12:02:36;13.90;59.84
5938;DHT22;2994;51.220;4.412;2023-03-20T12:05:29;13.99;59.40
5938;DHT22;2994;51.220;4.412;2023-03-20T12:08:22;14.03;58.58
5938;DHT22;2994;51.220;4.412;2023-03-20T12:10:55;13.88;58.66
5938;DHT22;2994;51.220;4.412;2023-03-20T12:13:27;13.96;57.91
5938;DHT22;2994;51.220;4.412;2023-03-20T12:15:57;13.88;58.28
5938;DHT22;2994;51.220;4.412;2023-03-20T12:18:34;13.99;58.67
5938;DHT22;2994;51.220;4.412;2023-03-20T12:21:25;14.08;58.75
5938;DHT22;2994;51.220;4.412;2023-03-20T12:23:59;14.11;58.32
5938;DHT22;2994;51.220;4.412;2023-03-20T12:28:56;14.03;58.44
5938;DHT22;2994;51.220;4.412;2023-03-20T12:31:42;14.07;58.57
5938;DHT22;2994;51.220;4.412;2023-03-20T12:34:30;13.96;58.97
5938;DHT22;2994;51.220;4.412;2023-03-20T12:36:57;14.04;59.01
5938;DHT22;2994;51.220;4.412;2023-03-20T12:39:26;13.99;59.25
5938;DHT22;2994;51.220;4.412;2023-03-20T12:47:42;13.86;59.55
5938;DHT22;2994;51.220;4.412;2023-03-20T12:58:42;13.90;59.43
5938;DHT22;2994;51.220;4.412;2023-03-20T13:01:34;13.83;60.12
5938;DHT22;2994;51.220;4.412;2023-03-20T13:06:53;13.86;59.80
5938;DHT22;2994;51.220;4.412;2023-03-20T13:12:18;13.82;61.18
5938;DHT22;2994;51.220;4.412;2023-03-20T13:15:18;13.71;61.82
5938;DHT22;2994;51.220;4.412;2023-03-20T13:18:10;13.91;61.71
5938;DHT22;2994;51.220;4.412;2023-03-20T13:20:51;13.95;61.57
5938;DHT22;2994;51.220;4.412;2023-03-20T13:29:12;14.07;61.31
5938;DHT22;2994;51.220;4.412;2023-03-20T13:31:42;14.04;61.54
5938;DHT22;2994;51.220;4.412;2023-03-20T13:39:47;13.85;61.86
5938;DHT22;2994;51.220;4.412;2023-03-20T13:42:21;13.95;61.64
5938;DHT22;2994;51.220;4.412;2023-03-20T13:44:49;13.89;62.23
5938;DHT22;2994;51.220;4.412;2023-03-20T13:47:20;13.89;62.28
5938;DHT22;2994;51.220;4.412;2023-03-20T13:49:58;13.81;62.57
5938;DHT22;2994;51.220;4.412;2023-03-20T13:52:30;13.82;62.41
5938;DHT22;2994;51.220;4.412;2023-03-20T14:00:27;13.84;62.49
5938;DHT22;2994;51.220;4.412;2023-03-20T14:03:26;13.78;62.91
5938;DHT22;2994;51.220;4.412;2023-03-20T14:05:54;13.78;63.18
5938;DHT22;2994;51.220;4.412;2023-03-20T14:13:54;13.86;62.92
5938;DHT22;2994;51.220;4.412;2023-03-20T14:16:21;13.67;63.34
5938;DHT22;2994;51.220;4.412;2023-03-20T14:18:49;13.88;62.76
5938;DHT22;2994;51.220;4.412;2023-03-20T14:21:19;13.81;63.32
5938;DHT22;2994;51.220;4.412;2023-03-20T14:23:50;13.83;63.32
5938;DHT22;2994;51.220;4.412;2023-03-20T14:26:54;13.92;63.27
5938;DHT22;2994;51.220;4.412;2023-03-20T14:29:32;13.76;64.92
5938;DHT22;2994;51.220;4.412;2023-03-20T14:32:21;13.85;65.07
5938;DHT22;2994;51.220;4.412;2023-03-20T14:38:06;14.00;65.36
5938;DHT22;2994;51.220;4.412;2023-03-20T14:40:37;13.91;65.50
5938;DHT22;2994;51.220;4.412;2023-03-20T14:48:55;13.83;65.87
5938;DHT22;2994;51.220;4.412;2023-03-20T14:51:46;13.84;65.83
5938;DHT22;2994;51.220;4.412;2023-03-20T14:56:51;13.82;66.68
5938;DHT22;2994;51.220;4.412;2023-03-20T14:59:26;13.88;66.96
5938;DHT22;2994;51.220;4.412;2023-03-20T15:01:57;13.78;67.44
5938;DHT22;2994;51.220;4.412;2023-03-20T15:04:33;13.92;67.17
5938;DHT22;2994;51.220;4.412;2023-03-20T15:07:03;13.85;67.88
5938;DHT22;2994;51.220;4.412;2023-03-20T15:09:34;13.83;68.01
5938;DHT22;2994;51.220;4.412;2023-03-20T15:12:02;13.78;68.65
5938;DHT22;2994;51.220;4.412;2023-03-20T15:14:33;13.81;67.78
5938;DHT22;2994;51.220;4.412;2023-03-20T15:17:02;13.91;67.57
5938;DHT22;2994;51.220;4.412;2023-03-20T15:19:28;13.92;67.97
5938;DHT22;2994;51.220;4.412;2023-03-20T15:21:54;13.97;67.78
5938;DHT22;2994;51.220;4.412;2023-03-20T15:24:22;13.91;68.11
5938;DHT22;2994;51.220;4.412;2023-03-20T15:26:53;13.93;67.97
5938;DHT22;2994;51.220;4.412;2023-03-20T15:29:20;13.93;68.39
5938;DHT22;2994;51.220;4.412;2023-03-20T15:31:51;13.98;68.07
5938;DHT22;2994;51.220;4.412;2023-03-20T15:34:21;14.01;67.83
5938;DHT22;2994;51.220;4.412;2023-03-20T15:36:47;14.04;67.86
5938;DHT22;2994;51.220;4.412;2023-03-20T15:39:15;14.08;67.98
5938;DHT22;2994;51.220;4.412;2023-03-20T15:41:44;14.14;67.78
5938;DHT22;2994;51.220;4.412;2023-03-20T15:44:15;14.24;67.31
5938;DHT22;2994;51.220;4.412;2023-03-20T15:47:06;14.28;67.10
5938;DHT22;2994;51.220;4.412;2023-03-20T15:49:37;14.33;66.85
5938;DHT22;2994;51.220;4.412;2023-03-20T15:54:56;14.28;67.21
5938;DHT22;2994;51.220;4.412;2023-03-20T15:57:36;14.24;66.79
5938;DHT22;2994;51.220;4.412;2023-03-20T16:00:05;14.27;67.05
5938;DHT22;2994;51.220;4.412;2023-03-20T16:02:31;14.22;67.20
5938;DHT22;2994;51.220;4.412;2023-03-20T16:04:57;14.29;66.91
5938;DHT22;2994;51.220;4.412;2023-03-20T16:07:31;14.25;66.78
5938;DHT22;2994;51.220;4.412;2023-03-20T16:09:58;14.33;66.74
5938;DHT22;2994;51.220;4.412;2023-03-20T16:12:25;14.29;66.37
5938;DHT22;2994;51.220;4.412;2023-03-20T16:14:53;14.29;66.36
5938;DHT22;2994;51.220;4.412;2023-03-20T16:17:21;14.33;66.44
5938;DHT22;2994;51.220;4.412;2023-03-20T16:19:48;14.28;66.96
5938;DHT22;2994;51.220;4.412;2023-03-20T16:24:48;14.28;66.52
5938;DHT22;2994;51.220;4.412;2023-03-20T16:27:22;14.35;66.46
5938;DHT22;2994;51.220;4.412;2023-03-20T16:29:50;14.34;66.82
5938;DHT22;2994;51.220;4.412;2023-03-20T16:32:24;14.36;66.65
5938;DHT22;2994;51.220;4.412;2023-03-20T16:34:54;14.38;66.86
5938;DHT22;2994;51.220;4.412;2023-03-20T16:37:29;14.23;67.29
5938;DHT22;2994;51.220;4.412;2023-03-20T16:42:43;14.27;67.13
5938;DHT22;2994;51.220;4.412;2023-03-20T16:45:29;14.15;67.19
5938;DHT22;2994;51.220;4.412;2023-03-20T16:50:42;14.33;66.89
5938;DHT22;2994;51.220;4.412;2023-03-20T16:53:18;14.27;66.85
5938;DHT22;2994;51.220;4.412;2023-03-20T16:55:54;14.27;66.56
5938;DHT22;2994;51.220;4.412;2023-03-20T16:58:23;14.33;66.90
5938;DHT22;2994;51.220;4.412;2023-03-20T17:01:17;14.38;66.27
5938;DHT22;2994;51.220;4.412;2023-03-20T17:08:55;14.38;66.29
5938;DHT22;2994;51.220;4.412;2023-03-20T17:11:35;14.35;66.72
5938;DHT22;2994;51.220;4.412;2023-03-20T17:14:01;14.22;66.81
5938;DHT22;2994;51.220;4.412;2023-03-20T17:16:28;14.35;66.41
5938;DHT22;2994;51.220;4.412;2023-03-20T17:19:00;14.35;66.14
5938;DHT22;2994;51.220;4.412;2023-03-20T17:21:26;14.36;66.34
5938;DHT22;2994;51.220;4.412;2023-03-20T17:23:51;14.33;66.49
5938;DHT22;2994;51.220;4.412;2023-03-20T17:26:17;14.18;66.73
5938;DHT22;2994;51.220;4.412;2023-03-20T17:28:42;14.32;66.53
5938;DHT22;2994;51.220;4.412;2023-03-20T17:31:12;14.30;66.52
5938;DHT22;2994;51.220;4.412;2023-03-20T17:33:38;14.25;66.62
5938;DHT22;2994;51.220;4.412;2023-03-20T17:36:19;14.27;66.66
5938;DHT22;2994;51.220;4.412;2023-03-20T17:38:45;14.27;66.79
5938;DHT22;2994;51.220;4.412;2023-03-20T17:41:16;14.08;67.43
5938;DHT22;2994;51.220;4.412;2023-03-20T17:43:43;14.18;66.90
5938;DHT22;2994;51.220;4.412;2023-03-20T17:46:20;14.26;66.80
5938;DHT22;2994;51.220;4.412;2023-03-20T17:48:50;14.19;66.82
5938;DHT22;2994;51.220;4.412;2023-03-20T17:51:19;14.13;67.33
5938;DHT22;2994;51.220;4.412;2023-03-20T17:53:45;14.22;66.59
5938;DHT22;2994;51.220;4.412;2023-03-20T17:56:16;14.27;66.37
5938;DHT22;2994;51.220;4.412;2023-03-20T17:58:42;14.24;66.55
5938;DHT22;2994;51.220;4.412;2023-03-20T18:01:11;14.29;66.23
5938;DHT22;2994;51.220;4.412;2023-03-20T18:03:37;14.27;66.17
5938;DHT22;2994;51.220;4.412;2023-03-20T18:06:04;14.28;66.08
5938;DHT22;2994;51.220;4.412;2023-03-20T18:08:30;14.34;66.42
5938;DHT22;2994;51.220;4.412;2023-03-20T18:10:55;14.34;66.61
5938;DHT22;2994;51.220;4.412;2023-03-20T18:13:22;14.37;66.47
5938;DHT22;2994;51.220;4.412;2023-03-20T18:15:54;14.39;66.14
5938;DHT22;2994;51.220;4.412;2023-03-20T18:18:21;14.39;66.11
5938;DHT22;2994;51.220;4.412;2023-03-20T18:20:46;14.38;66.33
5938;DHT22;2994;51.220;4.412;2023-03-20T18:23:13;14.40;66.45
5938;DHT22;2994;51.220;4.412;2023-03-20T18:25:39;14.30;66.33
5938;DHT22;2994;51.220;4.412;2023-03-20T18:28:06;14.33;66.43
5938;DHT22;2994;51.220;4.412;2023-03-20T18:30:37;14.30;66.13
5938;DHT22;2994;51.220;4.412;2023-03-20T18:33:04;14.28;66.16